createdAt,value
2019-03-20T00:00:38.097Z,0.60
2019-03-20T00:03:04.449Z,0.50
2019-03-20T00:05:30.939Z,0.50
2019-03-20T00:07:57.324Z,0.40
2019-03-20T00:10:24.079Z,0.40
2019-03-20T00:12:50.500Z,0.30
2019-03-20T00:15:17.089Z,0.30
2019-03-20T00:17:44.565Z,0.20
2019-03-20T00:20:12.269Z,0.20
2019-03-20T00:22:38.716Z,0.20
2019-03-20T00:25:07.100Z,0.20
2019-03-20T00:27:34.611Z,0.20
2019-03-20T00:30:01.040Z,0.10
2019-03-20T00:32:27.566Z,0.00
2019-03-20T00:35:00.951Z,-0.10
2019-03-20T00:37:22.323Z,0.00
2019-03-20T00:39:48.786Z,-0.10
2019-03-20T00:42:15.494Z,-0.20
2019-03-20T00:44:41.846Z,-0.20
2019-03-20T00:47:08.263Z,-0.20
2019-03-20T00:49:34.598Z,-0.10
2019-03-20T00:52:00.993Z,-0.10
2019-03-20T00:54:27.317Z,-0.10
2019-03-20T00:56:53.712Z,-0.10
2019-03-20T00:59:20.115Z,-0.10
2019-03-20T01:01:47.618Z,-0.10
2019-03-20T01:04:14.010Z,0.00
2019-03-20T01:06:40.405Z,0.10
2019-03-20T01:09:06.828Z,0.20
2019-03-20T01:11:33.365Z,0.20
2019-03-20T01:13:59.782Z,0.20
2019-03-20T01:16:26.146Z,0.20
2019-03-20T01:18:52.491Z,0.30
2019-03-20T01:21:18.902Z,0.30
2019-03-20T01:23:45.307Z,0.40
2019-03-20T01:26:11.758Z,0.40
2019-03-20T01:28:38.227Z,0.50
2019-03-20T01:31:04.659Z,0.50
2019-03-20T01:33:31.062Z,0.40
2019-03-20T01:35:57.530Z,0.40
2019-03-20T01:38:23.993Z,0.40
2019-03-20T01:40:51.420Z,0.50
2019-03-20T01:43:17.794Z,0.40
2019-03-20T01:45:44.168Z,0.30
2019-03-20T01:48:10.555Z,0.20
2019-03-20T01:50:37.159Z,0.10
2019-03-20T01:53:03.682Z,0.00
2019-03-20T01:55:31.216Z,0.00
2019-03-20T01:57:57.608Z,-0.10
2019-03-20T02:00:24.085Z,-0.10
2019-03-20T02:02:50.519Z,-0.20
2019-03-20T02:05:17.035Z,-0.20
2019-03-20T02:07:43.454Z,-0.20
2019-03-20T02:10:14.335Z,-0.30
2019-03-20T02:12:41.959Z,-0.40
2019-03-20T02:15:11.017Z,-0.50
2019-03-20T02:17:37.477Z,-0.50
2019-03-20T02:20:07.489Z,-0.50
2019-03-20T02:22:33.948Z,-0.50
2019-03-20T02:25:00.456Z,-0.70
2019-03-20T02:27:26.959Z,-0.70
2019-03-20T02:29:53.446Z,-0.70
2019-03-20T02:32:19.829Z,-0.70
2019-03-20T02:34:46.183Z,-0.70
2019-03-20T02:37:12.571Z,-0.70
2019-03-20T02:39:38.972Z,-0.70
2019-03-20T02:42:05.460Z,-0.70
2019-03-20T02:44:31.780Z,-0.80
2019-03-20T02:46:58.220Z,-0.80
2019-03-20T02:49:25.652Z,-0.80
2019-03-20T02:51:52.066Z,-0.90
2019-03-20T02:54:18.443Z,-0.90
2019-03-20T02:56:44.846Z,-0.90
2019-03-20T02:59:11.228Z,-0.80
2019-03-20T03:01:37.652Z,-0.90
2019-03-20T03:04:04.072Z,-1.00
2019-03-20T03:06:30.466Z,-0.90
2019-03-20T03:08:56.870Z,-1.00
2019-03-20T03:11:23.262Z,-1.00
2019-03-20T03:13:49.688Z,-1.10
2019-03-20T03:16:16.064Z,-1.10
2019-03-20T03:18:42.485Z,-1.10
2019-03-20T03:21:08.971Z,-1.20
2019-03-20T03:23:35.385Z,-1.10
2019-03-20T03:26:01.765Z,-1.20
2019-03-20T03:28:28.128Z,-1.10
2019-03-20T03:30:54.511Z,-1.10
2019-03-20T03:33:21.042Z,-1.20
2019-03-20T03:35:47.524Z,-1.20
2019-03-20T03:38:14.060Z,-1.30
2019-03-20T03:40:42.105Z,-1.30
2019-03-20T03:43:08.489Z,-1.30
2019-03-20T03:45:34.927Z,-1.30
2019-03-20T03:48:01.308Z,-1.30
2019-03-20T03:50:27.619Z,-1.30
2019-03-20T03:52:54.000Z,-1.30
2019-03-20T03:55:20.394Z,-1.30
2019-03-20T03:57:47.058Z,-1.40
2019-03-20T04:00:18.800Z,-1.40
2019-03-20T04:02:45.262Z,-1.40
2019-03-20T04:05:12.119Z,-1.40
2019-03-20T04:07:38.524Z,-1.50
2019-03-20T04:10:10.685Z,-1.40
2019-03-20T04:12:37.095Z,-1.50
2019-03-20T04:15:06.403Z,-1.50
2019-03-20T04:17:32.827Z,-1.50
2019-03-20T04:19:59.199Z,-1.60
2019-03-20T04:22:25.637Z,-1.60
2019-03-20T04:24:51.976Z,-1.70
2019-03-20T04:27:18.364Z,-1.70
2019-03-20T04:29:44.767Z,-1.80
2019-03-20T04:32:11.165Z,-1.80
2019-03-20T04:34:37.578Z,-1.70
2019-03-20T04:37:04.011Z,-1.90
2019-03-20T04:39:30.417Z,-1.90
2019-03-20T04:41:56.853Z,-1.90
2019-03-20T04:44:24.345Z,-1.90
2019-03-20T04:46:50.821Z,-1.90
2019-03-20T04:49:17.197Z,-2.00
2019-03-20T04:51:43.634Z,-2.00
2019-03-20T04:54:09.992Z,-2.00
2019-03-20T04:56:36.396Z,-1.90
2019-03-20T04:59:02.777Z,-2.00
2019-03-20T05:01:29.161Z,-1.90
2019-03-20T05:03:55.539Z,-2.00
2019-03-20T05:06:21.924Z,-2.00
2019-03-20T05:08:48.559Z,-1.90
2019-03-20T05:11:14.953Z,-1.90
2019-03-20T05:13:41.359Z,-1.80
2019-03-20T05:16:07.746Z,-1.90
2019-03-20T05:18:34.119Z,-1.90
2019-03-20T05:21:00.496Z,-1.90
2019-03-20T05:23:26.920Z,-1.80
2019-03-20T05:25:53.310Z,-1.80
2019-03-20T05:28:19.770Z,-1.80
2019-03-20T05:30:46.146Z,-1.70
2019-03-20T05:33:12.540Z,-1.70
2019-03-20T05:35:38.943Z,-1.70
2019-03-20T05:38:05.350Z,-1.70
2019-03-20T05:40:31.741Z,-1.60
2019-03-20T05:42:58.102Z,-1.60
2019-03-20T05:45:24.511Z,-1.60
2019-03-20T05:47:50.907Z,-1.50
2019-03-20T05:50:17.300Z,-1.50
2019-03-20T05:52:43.684Z,-1.30
2019-03-20T05:55:10.726Z,-1.40
2019-03-20T05:57:37.115Z,-1.30
2019-03-20T06:00:06.630Z,-1.20
2019-03-20T06:02:33.041Z,-1.20
2019-03-20T06:04:59.432Z,-1.20
2019-03-20T06:07:25.814Z,-1.10
2019-03-20T06:09:52.281Z,-1.00
2019-03-20T06:12:18.719Z,-0.90
2019-03-20T06:14:45.123Z,-0.90
2019-03-20T06:17:11.483Z,-0.80
2019-03-20T06:19:37.919Z,-0.60
2019-03-20T06:22:04.257Z,-0.30
2019-03-20T06:24:30.679Z,0.20
2019-03-20T06:26:57.105Z,1.00
2019-03-20T06:29:23.526Z,1.50
2019-03-20T06:31:49.889Z,2.50
2019-03-20T06:34:16.288Z,3.40
2019-03-20T06:36:42.744Z,4.30
2019-03-20T06:39:09.070Z,4.90
2019-03-20T06:41:35.475Z,5.40
2019-03-20T06:44:01.864Z,5.80
2019-03-20T06:46:28.302Z,6.10
2019-03-20T06:48:54.754Z,6.60
2019-03-20T06:51:21.164Z,7.20
2019-03-20T06:53:47.618Z,7.50
2019-03-20T06:56:15.306Z,7.90
2019-03-20T06:58:41.708Z,8.20
2019-03-20T07:01:12.016Z,8.60
2019-03-20T07:03:45.264Z,8.90
2019-03-20T07:06:32.994Z,9.30
2019-03-20T07:09:09.092Z,9.10
2019-03-20T07:11:38.475Z,9.60
2019-03-20T07:14:04.986Z,10.50
2019-03-20T07:16:31.338Z,10.80
2019-03-20T07:18:57.719Z,10.20
2019-03-20T07:21:24.098Z,10.80
2019-03-20T07:23:50.538Z,11.10
2019-03-20T07:26:17.034Z,10.70
2019-03-20T07:28:43.428Z,11.00
2019-03-20T07:31:15.336Z,11.30
2019-03-20T07:33:38.941Z,11.20
2019-03-20T07:36:05.400Z,11.80
2019-03-20T07:38:31.890Z,12.00
2019-03-20T07:40:58.336Z,12.40
2019-03-20T07:43:26.942Z,12.80
2019-03-20T07:45:52.931Z,13.20
2019-03-20T07:48:22.360Z,13.30
2019-03-20T07:50:47.593Z,13.40
2019-03-20T07:53:14.062Z,13.80
2019-03-20T07:55:40.414Z,13.80
2019-03-20T07:58:06.856Z,14.00
2019-03-20T08:00:33.282Z,14.60
2019-03-20T08:02:59.829Z,14.40
2019-03-20T08:05:29.487Z,14.70
2019-03-20T08:07:54.484Z,15.10
2019-03-20T08:10:20.890Z,15.40
2019-03-20T08:12:47.352Z,15.50
2019-03-20T08:15:16.005Z,15.20
2019-03-20T08:17:42.805Z,15.10
2019-03-20T08:20:12.760Z,15.50
2019-03-20T08:22:40.727Z,15.80
2019-03-20T08:25:07.672Z,15.80
2019-03-20T08:27:34.995Z,16.10
2019-03-20T08:30:02.611Z,16.20
2019-03-20T08:32:30.264Z,16.50
2019-03-20T08:34:56.678Z,16.50
2019-03-20T08:37:23.080Z,16.90
2019-03-20T08:39:49.523Z,17.10
2019-03-20T08:42:15.928Z,17.10
2019-03-20T08:44:42.390Z,17.80
2019-03-20T08:47:08.800Z,17.60
2019-03-20T08:49:35.212Z,17.40
2019-03-20T08:52:01.652Z,17.70
2019-03-20T08:54:28.109Z,17.60
2019-03-20T08:56:54.530Z,18.20
2019-03-20T08:59:20.966Z,18.00
2019-03-20T09:01:47.432Z,18.00
2019-03-20T09:04:13.850Z,18.10
2019-03-20T09:06:40.385Z,19.00
2019-03-20T09:09:09.316Z,18.60
2019-03-20T09:11:35.771Z,17.90
2019-03-20T09:14:02.300Z,18.10
2019-03-20T09:16:28.850Z,18.00
2019-03-20T09:18:55.397Z,18.20
2019-03-20T09:21:21.882Z,18.40
2019-03-20T09:23:48.327Z,18.60
2019-03-20T09:26:14.823Z,18.80
2019-03-20T09:28:41.259Z,18.90
2019-03-20T09:31:07.643Z,19.10
2019-03-20T09:33:34.114Z,19.00
2019-03-20T09:36:00.958Z,19.70
2019-03-20T09:38:27.395Z,19.80
2019-03-20T09:40:53.862Z,19.70
2019-03-20T09:43:20.271Z,19.80
2019-03-20T09:45:46.767Z,19.40
2019-03-20T09:48:13.232Z,19.50
2019-03-20T09:50:39.623Z,19.60
2019-03-20T09:53:06.075Z,19.60
2019-03-20T09:55:32.510Z,19.70
2019-03-20T09:57:58.988Z,19.40
2019-03-20T10:00:26.444Z,19.50
2019-03-20T10:02:53.303Z,19.70
2019-03-20T10:05:20.035Z,19.80
2019-03-20T10:07:46.590Z,19.90
2019-03-20T10:10:19.990Z,20.40
2019-03-20T10:12:46.428Z,20.70
2019-03-20T10:15:15.476Z,20.20
2019-03-20T10:17:41.889Z,20.80
2019-03-20T10:20:14.217Z,20.60
2019-03-20T10:22:40.610Z,20.50
2019-03-20T10:25:08.460Z,20.10
2019-03-20T10:27:34.934Z,20.90
2019-03-20T10:30:01.366Z,21.10
2019-03-20T10:32:27.860Z,21.30
2019-03-20T10:34:54.295Z,20.80
2019-03-20T10:37:20.734Z,20.50
2019-03-20T10:39:47.212Z,20.40
2019-03-20T10:42:13.677Z,20.80
2019-03-20T10:44:40.106Z,20.80
2019-03-20T10:47:06.610Z,20.90
2019-03-20T10:49:33.062Z,21.00
2019-03-20T10:51:59.529Z,21.80
2019-03-20T10:54:26.188Z,21.90
2019-03-20T10:56:53.531Z,21.10
2019-03-20T10:59:20.137Z,21.50
2019-03-20T11:01:46.566Z,21.40
2019-03-20T11:04:13.120Z,21.20
2019-03-20T11:06:39.556Z,21.20
2019-03-20T11:09:17.375Z,21.30
2019-03-20T11:11:34.368Z,22.30
2019-03-20T11:14:00.817Z,22.50
2019-03-20T11:16:27.223Z,22.20
2019-03-20T11:18:54.378Z,22.30
2019-03-20T11:21:20.803Z,22.40
2019-03-20T11:23:47.182Z,22.10
2019-03-20T11:26:14.626Z,22.10
2019-03-20T11:28:41.169Z,21.40
2019-03-20T11:31:07.561Z,21.10
2019-03-20T11:33:33.981Z,21.60
2019-03-20T11:36:00.466Z,21.60
2019-03-20T11:38:26.870Z,21.60
2019-03-20T11:40:53.362Z,21.90
2019-03-20T11:43:19.738Z,21.70
2019-03-20T11:45:46.142Z,21.80
2019-03-20T11:48:12.553Z,22.30
2019-03-20T11:50:40.413Z,21.70
2019-03-20T11:53:07.673Z,21.40
2019-03-20T11:55:34.717Z,22.30
2019-03-20T11:58:01.282Z,22.30
2019-03-20T12:00:27.759Z,22.40
2019-03-20T12:02:54.238Z,22.00
2019-03-20T12:05:21.678Z,21.80
2019-03-20T12:07:48.116Z,21.70
2019-03-20T12:10:26.416Z,21.60
2019-03-20T12:12:52.844Z,20.90
2019-03-20T12:15:19.390Z,21.00
2019-03-20T12:17:45.925Z,21.80
2019-03-20T12:20:22.076Z,20.90
2019-03-20T12:22:50.042Z,20.70
2019-03-20T12:25:31.031Z,20.80
2019-03-20T12:27:57.502Z,21.60
2019-03-20T12:30:26.777Z,21.40
2019-03-20T12:32:54.737Z,21.60
2019-03-20T12:35:22.571Z,20.90
2019-03-20T12:37:49.254Z,20.90
2019-03-20T12:40:23.596Z,20.70
2019-03-20T12:42:50.276Z,20.30
2019-03-20T12:45:21.936Z,21.30
2019-03-20T12:47:48.369Z,21.50
2019-03-20T12:50:14.722Z,21.10
2019-03-20T12:52:41.504Z,21.10
2019-03-20T12:55:10.572Z,20.80
2019-03-20T12:57:37.029Z,20.90
2019-03-20T13:00:07.322Z,21.50
2019-03-20T13:02:33.778Z,20.40
2019-03-20T13:05:00.199Z,20.40
2019-03-20T13:07:26.714Z,20.60
2019-03-20T13:09:56.168Z,20.60
2019-03-20T13:12:21.368Z,20.80
2019-03-20T13:14:47.777Z,20.70
2019-03-20T13:17:14.338Z,19.80
2019-03-20T13:19:40.729Z,20.10
2019-03-20T13:22:07.189Z,20.20
2019-03-20T13:24:33.624Z,20.10
2019-03-20T13:27:00.077Z,20.20
2019-03-20T13:29:26.586Z,20.00
2019-03-20T13:31:53.165Z,19.40
2019-03-20T13:34:19.614Z,19.30
2019-03-20T13:36:46.993Z,19.00
2019-03-20T13:39:13.479Z,18.50
2019-03-20T13:41:39.898Z,18.80
2019-03-20T13:44:06.350Z,18.80
2019-03-20T13:46:32.795Z,19.10
2019-03-20T13:48:59.301Z,19.90
2019-03-20T13:51:25.758Z,19.90
2019-03-20T13:53:52.221Z,20.10
2019-03-20T13:56:18.640Z,19.50
2019-03-20T13:58:46.220Z,18.90
2019-03-20T14:01:12.725Z,17.90
2019-03-20T14:03:39.196Z,17.00
2019-03-20T14:06:05.927Z,16.60
2019-03-20T14:08:32.358Z,16.00
2019-03-20T14:10:58.811Z,15.30
2019-03-20T14:13:25.352Z,14.50
2019-03-20T14:15:52.816Z,14.30
2019-03-20T14:18:19.245Z,14.30
2019-03-20T14:20:45.858Z,14.40
2019-03-20T14:23:13.480Z,14.20
2019-03-20T14:25:39.958Z,13.90
2019-03-20T14:28:06.655Z,13.80
2019-03-20T14:30:33.271Z,13.70
2019-03-20T14:32:59.796Z,13.70
2019-03-20T14:35:26.394Z,13.60
2019-03-20T14:37:53.078Z,13.80
2019-03-20T14:40:37.414Z,13.80
2019-03-20T14:42:58.541Z,13.90
2019-03-20T14:45:25.378Z,13.50
2019-03-20T14:47:52.029Z,13.20
2019-03-20T14:50:29.067Z,12.90
2019-03-20T14:52:55.530Z,12.60
2019-03-20T14:55:22.946Z,12.50
2019-03-20T14:57:49.720Z,12.40
2019-03-20T15:00:29.330Z,12.20
2019-03-20T15:02:55.852Z,12.20
2019-03-20T15:05:22.389Z,12.20
2019-03-20T15:07:49.106Z,12.20
2019-03-20T15:10:18.416Z,12.10
2019-03-20T15:12:45.782Z,12.00
2019-03-20T15:15:33.808Z,11.90
2019-03-20T15:18:00.403Z,11.90
2019-03-20T15:20:26.899Z,11.90
2019-03-20T15:22:53.465Z,11.90
2019-03-20T15:25:20.042Z,11.90
2019-03-20T15:27:46.560Z,11.80
2019-03-20T15:30:16.061Z,11.90
2019-03-20T15:32:42.546Z,11.90
2019-03-20T15:35:09.174Z,11.90
2019-03-20T15:37:35.607Z,11.80
2019-03-20T15:40:03.848Z,11.80
2019-03-20T15:42:31.372Z,11.70
2019-03-20T15:44:57.704Z,11.60
2019-03-20T15:47:24.181Z,11.60
2019-03-20T15:49:50.587Z,11.50
2019-03-20T15:52:17.002Z,11.50
2019-03-20T15:54:43.452Z,11.50
2019-03-20T15:57:09.943Z,11.40
2019-03-20T15:59:36.477Z,11.40
2019-03-20T16:02:03.011Z,11.40
2019-03-20T16:04:29.408Z,11.30
2019-03-20T16:06:55.857Z,11.30
2019-03-20T16:09:22.356Z,11.30
2019-03-20T16:11:48.866Z,11.30
2019-03-20T16:14:15.343Z,11.20
2019-03-20T16:16:41.849Z,11.20
2019-03-20T16:19:08.278Z,11.10
2019-03-20T16:21:34.690Z,11.10
2019-03-20T16:24:01.129Z,11.10
2019-03-20T16:26:27.676Z,11.10
2019-03-20T16:28:54.159Z,11.10
2019-03-20T16:31:20.573Z,11.00
2019-03-20T16:33:47.042Z,11.00
2019-03-20T16:36:13.459Z,10.90
2019-03-20T16:38:39.870Z,10.80
2019-03-20T16:41:16.203Z,10.80
2019-03-20T16:43:34.506Z,10.80
2019-03-20T16:46:00.977Z,10.80
2019-03-20T16:48:27.363Z,10.70
2019-03-20T16:50:53.788Z,10.70
2019-03-20T16:53:20.233Z,10.70
2019-03-20T16:55:46.746Z,10.70
2019-03-20T16:58:13.272Z,10.60
2019-03-20T17:00:39.793Z,10.60
2019-03-20T17:03:06.252Z,10.60
2019-03-20T17:05:32.753Z,10.60
2019-03-20T17:07:59.194Z,10.50
2019-03-20T17:10:28.732Z,10.50
2019-03-20T17:12:55.281Z,10.50
2019-03-20T17:15:23.849Z,10.40
2019-03-20T17:17:50.332Z,10.40
2019-03-20T17:20:17.420Z,10.40
2019-03-20T17:22:43.780Z,10.30
2019-03-20T17:25:11.110Z,10.40
2019-03-20T17:27:37.639Z,10.40
2019-03-20T17:30:16.999Z,10.40
2019-03-20T17:32:43.466Z,10.30
2019-03-20T17:35:11.752Z,10.30
2019-03-20T17:37:38.169Z,10.30
2019-03-20T17:40:13.002Z,10.30
2019-03-20T17:42:39.787Z,10.30
2019-03-20T17:45:09.705Z,10.30
2019-03-20T17:47:36.197Z,10.20
2019-03-20T17:50:06.464Z,10.20
2019-03-20T17:52:32.932Z,10.20
2019-03-20T17:54:59.437Z,10.20
2019-03-20T17:57:26.902Z,10.20
2019-03-20T17:59:53.359Z,10.20
2019-03-20T18:02:24.010Z,10.20
2019-03-20T18:04:48.096Z,10.10
2019-03-20T18:07:14.652Z,10.10
2019-03-20T18:09:41.071Z,10.10
2019-03-20T18:12:07.527Z,10.10
2019-03-20T18:14:34.044Z,10.10
2019-03-20T18:17:00.489Z,10.10
2019-03-20T18:19:26.976Z,10.20
2019-03-20T18:21:53.474Z,10.10
2019-03-20T18:24:20.007Z,10.10
2019-03-20T18:26:47.556Z,10.10
2019-03-20T18:29:14.083Z,10.10
2019-03-20T18:31:46.050Z,10.10
2019-03-20T18:34:08.809Z,10.10
2019-03-20T18:36:35.308Z,10.00
2019-03-20T18:39:01.758Z,10.10
2019-03-20T18:41:29.773Z,10.10
2019-03-20T18:43:56.163Z,10.00
2019-03-20T18:46:22.535Z,10.00
2019-03-20T18:48:48.957Z,10.00
2019-03-20T18:51:15.404Z,10.00
2019-03-20T18:53:41.926Z,10.00
2019-03-20T18:56:08.412Z,10.00
2019-03-20T18:58:34.855Z,9.90
2019-03-20T19:01:01.287Z,9.90
2019-03-20T19:03:37.300Z,9.90
2019-03-20T19:06:14.559Z,10.00
2019-03-20T19:08:41.241Z,10.00
2019-03-20T19:11:07.810Z,10.00
2019-03-20T19:13:34.163Z,10.00
2019-03-20T19:16:00.583Z,10.00
2019-03-20T19:18:27.227Z,10.00
2019-03-20T19:20:53.775Z,10.00
2019-03-20T19:23:20.167Z,10.10
2019-03-20T19:25:46.604Z,10.00
2019-03-20T19:28:13.051Z,10.00
2019-03-20T19:30:39.731Z,10.00
2019-03-20T19:33:06.324Z,10.00
2019-03-20T19:35:32.796Z,10.00
2019-03-20T19:37:59.262Z,10.00
2019-03-20T19:40:25.692Z,10.00
2019-03-20T19:42:52.154Z,10.00
2019-03-20T19:45:18.605Z,10.00
2019-03-20T19:47:46.136Z,10.00
2019-03-20T19:50:13.948Z,10.00
2019-03-20T19:52:40.703Z,10.00
2019-03-20T19:55:11.802Z,10.00
2019-03-20T19:57:38.244Z,10.00
2019-03-20T20:00:21.671Z,9.90
2019-03-20T20:02:48.136Z,10.00
2019-03-20T20:05:16.018Z,9.90
2019-03-20T20:07:42.862Z,9.90
2019-03-20T20:10:12.460Z,9.90
2019-03-20T20:12:38.942Z,10.00
2019-03-20T20:15:12.470Z,9.90
2019-03-20T20:17:39.049Z,10.00
2019-03-20T20:20:09.231Z,10.00
2019-03-20T20:22:35.654Z,10.00
2019-03-20T20:25:03.686Z,9.90
2019-03-20T20:27:30.195Z,9.90
2019-03-20T20:29:56.998Z,9.90
2019-03-20T20:32:23.483Z,9.90
2019-03-20T20:34:50.092Z,9.90
2019-03-20T20:37:16.615Z,9.90
2019-03-20T20:39:43.434Z,9.90
2019-03-20T20:42:09.968Z,9.90
2019-03-20T20:44:36.360Z,9.90
2019-03-20T20:47:02.776Z,9.90
2019-03-20T20:49:29.182Z,9.80
2019-03-20T20:51:55.848Z,9.80
2019-03-20T20:54:22.261Z,9.80
2019-03-20T20:56:49.490Z,9.80
2019-03-20T20:59:16.049Z,9.90
2019-03-20T21:01:42.558Z,9.80
2019-03-20T21:04:09.103Z,9.90
2019-03-20T21:06:35.823Z,9.80
2019-03-20T21:09:05.209Z,9.90
2019-03-20T21:11:32.122Z,9.90
2019-03-20T21:13:58.732Z,9.80
2019-03-20T21:16:25.242Z,9.80
2019-03-20T21:19:21.693Z,9.80
2019-03-20T21:21:57.658Z,9.90
2019-03-20T21:24:25.060Z,9.90
2019-03-20T21:27:01.115Z,9.90
2019-03-20T21:30:06.601Z,9.90
2019-03-20T21:32:39.897Z,9.80
2019-03-20T21:35:32.679Z,9.90
2019-03-20T21:38:09.574Z,9.80
2019-03-20T21:41:15.438Z,9.90
2019-03-20T21:44:08.652Z,9.90
2019-03-20T21:47:01.964Z,9.80
2019-03-20T21:49:28.554Z,9.80
2019-03-20T21:51:54.994Z,9.80
2019-03-20T21:54:42.100Z,9.80
2019-03-20T21:57:15.496Z,9.90
2019-03-20T22:00:13.003Z,9.90
2019-03-20T22:02:39.525Z,9.90
2019-03-20T22:05:27.820Z,9.90
2019-03-20T22:07:54.257Z,9.90
2019-03-20T22:10:27.264Z,9.90
2019-03-20T22:13:18.161Z,9.90
2019-03-20T22:15:47.883Z,9.90
2019-03-20T22:18:53.407Z,9.90
2019-03-20T22:21:39.058Z,9.90
2019-03-20T22:24:26.309Z,9.90
2019-03-20T22:27:30.614Z,9.90
2019-03-20T22:29:57.178Z,9.90
2019-03-20T22:32:30.270Z,9.90
2019-03-20T22:35:12.495Z,9.90
2019-03-20T22:37:38.973Z,9.90
2019-03-20T22:40:15.112Z,9.90
2019-03-20T22:43:03.619Z,9.80
2019-03-20T22:46:05.930Z,9.80
2019-03-20T22:48:44.550Z,9.80
2019-03-20T22:51:17.602Z,9.80
2019-03-20T22:54:04.327Z,9.80
2019-03-20T22:57:07.476Z,9.90
2019-03-20T22:59:34.062Z,9.80
2019-03-20T23:02:19.203Z,9.80
2019-03-20T23:04:49.337Z,9.80
2019-03-20T23:07:15.789Z,9.70
2019-03-20T23:09:42.202Z,9.70
2019-03-20T23:12:10.945Z,9.70
2019-03-20T23:14:37.441Z,9.70
2019-03-20T23:17:03.878Z,9.70
2019-03-20T23:19:30.312Z,9.70
2019-03-20T23:21:56.829Z,9.70
2019-03-20T23:24:23.259Z,9.70
2019-03-20T23:26:49.766Z,9.70
2019-03-20T23:29:16.193Z,9.70
2019-03-20T23:31:42.702Z,9.70
2019-03-20T23:34:09.136Z,9.70
2019-03-20T23:36:35.749Z,9.60
2019-03-20T23:39:06.386Z,9.60
2019-03-20T23:41:33.114Z,9.60
2019-03-20T23:43:59.493Z,9.60
2019-03-20T23:46:25.909Z,9.60
2019-03-20T23:49:01.822Z,9.60
2019-03-20T23:51:33.678Z,9.50
2019-03-20T23:54:00.114Z,9.50
2019-03-20T23:56:32.920Z,9.50
2019-03-20T23:58:59.324Z,9.50
